sensor_id;sensor_type;location;lat;lon;timestamp;pressure;altitude;pressure_sealevel;temperature
19568;BMP280;9930;49.240;8.548;2022-08-23T00:00:17;100262.16;;;25.62
19568;BMP280;9930;49.240;8.548;2022-08-23T00:02:44;100256.06;;;25.62
19568;BMP280;9930;49.240;8.548;2022-08-23T00:05:16;100275.16;;;25.65
19568;BMP280;9930;49.240;8.548;2022-08-23T00:07:49;100269.94;;;25.65
19568;BMP280;9930;49.240;8.548;2022-08-23T00:10:17;100271.72;;;25.62
19568;BMP280;9930;49.240;8.548;2022-08-23T00:12:48;100263.28;;;25.52
19568;BMP280;9930;49.240;8.548;2022-08-23T00:15:18;100259.72;;;25.55
19568;BMP280;9930;49.240;8.548;2022-08-23T00:17:47;100267.50;;;25.58
19568;BMP280;9930;49.240;8.548;2022-08-23T00:20:17;100271.91;;;25.56
19568;BMP280;9930;49.240;8.548;2022-08-23T00:22:45;100259.06;;;25.46
19568;BMP280;9930;49.240;8.548;2022-08-23T00:25:16;100271.97;;;25.53
19568;BMP280;9930;49.240;8.548;2022-08-23T00:27:45;100262.47;;;25.50
19568;BMP280;9930;49.240;8.548;2022-08-23T00:30:15;100264.25;;;25.48
19568;BMP280;9930;49.240;8.548;2022-08-23T00:32:47;100266.91;;;25.46
19568;BMP280;9930;49.240;8.548;2022-08-23T00:35:16;100266.16;;;25.41
19568;BMP280;9930;49.240;8.548;2022-08-23T00:37:45;100259.34;;;25.36
19568;BMP280;9930;49.240;8.548;2022-08-23T00:40:17;100256.84;;;25.31
19568;BMP280;9930;49.240;8.548;2022-08-23T00:43:16;100265.47;;;25.35
19568;BMP280;9930;49.240;8.548;2022-08-23T00:46:47;100262.16;;;25.28
19568;BMP280;9930;49.240;8.548;2022-08-23T00:49:34;100251.94;;;25.19
19568;BMP280;9930;49.240;8.548;2022-08-23T00:52:56;100257.16;;;25.19
19568;BMP280;9930;49.240;8.548;2022-08-23T00:55:29;100258.06;;;25.18
19568;BMP280;9930;49.240;8.548;2022-08-23T00:57:56;100262.47;;;25.16
19568;BMP280;9930;49.240;8.548;2022-08-23T01:00:25;100253.97;;;25.08
19568;BMP280;9930;49.240;8.548;2022-08-23T01:02:54;100265.16;;;25.13
19568;BMP280;9930;49.240;8.548;2022-08-23T01:05:28;100263.44;;;25.12
19568;BMP280;9930;49.240;8.548;2022-08-23T01:07:58;100249.72;;;25.04
19568;BMP280;9930;49.240;8.548;2022-08-23T01:10:39;100254.91;;;25.05
19568;BMP280;9930;49.240;8.548;2022-08-23T01:13:40;100259.34;;;25.02
19568;BMP280;9930;49.240;8.548;2022-08-23T01:16:27;100253.38;;;24.95
19568;BMP280;9930;49.240;8.548;2022-08-23T01:19:01;100268.91;;;25.01
19568;BMP280;9930;49.240;8.548;2022-08-23T01:21:46;100269.81;;;25.00
19568;BMP280;9930;49.240;8.548;2022-08-23T01:24:15;100264.78;;;24.91
19568;BMP280;9930;49.240;8.548;2022-08-23T01:26:45;100275.97;;;24.96
19568;BMP280;9930;49.240;8.548;2022-08-23T01:29:15;100266.59;;;24.88
19568;BMP280;9930;49.240;8.548;2022-08-23T01:31:48;100281.25;;;24.93
19568;BMP280;9930;49.240;8.548;2022-08-23T01:34:17;100280.47;;;24.90
19568;BMP280;9930;49.240;8.548;2022-08-23T01:36:45;100269.31;;;24.83
19568;BMP280;9930;49.240;8.548;2022-08-23T01:39:15;100269.38;;;24.80
19568;BMP280;9930;49.240;8.548;2022-08-23T01:41:44;100277.09;;;24.84
19568;BMP280;9930;49.240;8.548;2022-08-23T01:44:17;100276.41;;;24.76
19568;BMP280;9930;49.240;8.548;2022-08-23T01:46:45;100278.09;;;24.79
19568;BMP280;9930;49.240;8.548;2022-08-23T01:49:14;100277.25;;;24.78
19568;BMP280;9930;49.240;8.548;2022-08-23T01:51:46;100273.78;;;24.78
19568;BMP280;9930;49.240;8.548;2022-08-23T01:54:14;100263.53;;;24.70
19568;BMP280;9930;49.240;8.548;2022-08-23T01:56:44;100266.09;;;24.72
19568;BMP280;9930;49.240;8.548;2022-08-23T01:59:17;100262.75;;;24.65
19568;BMP280;9930;49.240;8.548;2022-08-23T02:01:45;100273.09;;;24.70
19568;BMP280;9930;49.240;8.548;2022-08-23T02:04:15;100274.03;;;24.67
19568;BMP280;9930;49.240;8.548;2022-08-23T02:06:48;100271.47;;;24.64
19568;BMP280;9930;49.240;8.548;2022-08-23T02:09:14;100282.84;;;24.62
19568;BMP280;9930;49.240;8.548;2022-08-23T02:11:46;100278.59;;;24.58
19568;BMP280;9930;49.240;8.548;2022-08-23T02:14:19;100282.13;;;24.55
19568;BMP280;9930;49.240;8.548;2022-08-23T02:16:53;100270.06;;;24.49
19568;BMP280;9930;49.240;8.548;2022-08-23T02:19:23;100283.97;;;24.50
19568;BMP280;9930;49.240;8.548;2022-08-23T02:21:50;100289.22;;;24.48
19568;BMP280;9930;49.240;8.548;2022-08-23T02:24:22;100288.34;;;24.48
19568;BMP280;9930;49.240;8.548;2022-08-23T02:26:54;100294.50;;;24.45
19568;BMP280;9930;49.240;8.548;2022-08-23T02:29:25;100293.69;;;24.42
19568;BMP280;9930;49.240;8.548;2022-08-23T02:31:55;100284.25;;;24.36
19568;BMP280;9930;49.240;8.548;2022-08-23T02:34:21;100298.13;;;24.38
19568;BMP280;9930;49.240;8.548;2022-08-23T02:36:50;100291.34;;;24.30
19568;BMP280;9930;49.240;8.548;2022-08-23T02:39:19;100293.97;;;24.28
19568;BMP280;9930;49.240;8.548;2022-08-23T02:41:47;100303.47;;;24.31
19568;BMP280;9930;49.240;8.548;2022-08-23T02:44:17;100302.66;;;24.29
19568;BMP280;9930;49.240;8.548;2022-08-23T02:46:45;100306.19;;;24.26
19568;BMP280;9930;49.240;8.548;2022-08-23T02:49:15;100304.53;;;24.20
19568;BMP280;9930;49.240;8.548;2022-08-23T02:51:45;100283.97;;;24.05
19568;BMP280;9930;49.240;8.548;2022-08-23T02:54:18;100311.53;;;24.18
19568;BMP280;9930;49.240;8.548;2022-08-23T02:56:47;100312.41;;;24.17
19568;BMP280;9930;49.240;8.548;2022-08-23T02:59:17;100304.63;;;24.16
19568;BMP280;9930;49.240;8.548;2022-08-23T03:01:45;100314.19;;;24.15
19568;BMP280;9930;49.240;8.548;2022-08-23T03:04:14;100309.00;;;24.14
19568;BMP280;9930;49.240;8.548;2022-08-23T03:06:48;100309.91;;;24.11
19568;BMP280;9930;49.240;8.548;2022-08-23T03:09:15;100314.31;;;24.09
19568;BMP280;9930;49.240;8.548;2022-08-23T03:11:47;100318.69;;;24.07
19568;BMP280;9930;49.240;8.548;2022-08-23T03:14:20;100305.81;;;24.00
19568;BMP280;9930;49.240;8.548;2022-08-23T03:16:45;100318.78;;;24.03
19568;BMP280;9930;49.240;8.548;2022-08-23T03:19:15;100303.31;;;23.94
19568;BMP280;9930;49.240;8.548;2022-08-23T03:21:44;100305.94;;;23.94
19568;BMP280;9930;49.240;8.548;2022-08-23T03:24:14;100306.00;;;23.89
19568;BMP280;9930;49.240;8.548;2022-08-23T03:26:46;100308.66;;;23.86
19568;BMP280;9930;49.240;8.548;2022-08-23T03:29:20;100311.22;;;23.89
19568;BMP280;9930;49.240;8.548;2022-08-23T03:31:45;100319.09;;;23.86
19568;BMP280;9930;49.240;8.548;2022-08-23T03:34:18;100324.31;;;23.84
19568;BMP280;9930;49.240;8.548;2022-08-23T03:36:45;100311.44;;;23.77
19568;BMP280;9930;49.240;8.548;2022-08-23T03:39:14;100314.94;;;23.76
19568;BMP280;9930;49.240;8.548;2022-08-23T03:41:44;100322.78;;;23.74
19568;BMP280;9930;49.240;8.548;2022-08-23T03:44:14;100329.69;;;23.75
19568;BMP280;9930;49.240;8.548;2022-08-23T03:46:44;100330.53;;;23.77
19568;BMP280;9930;49.240;8.548;2022-08-23T03:49:14;100326.34;;;23.69
19568;BMP280;9930;49.240;8.548;2022-08-23T03:51:44;100327.25;;;23.66
19568;BMP280;9930;49.240;8.548;2022-08-23T03:54:16;100344.53;;;23.70
19568;BMP280;9930;49.240;8.548;2022-08-23T03:56:53;100350.69;;;23.66
19568;BMP280;9930;49.240;8.548;2022-08-23T03:59:24;100347.28;;;23.63
19568;BMP280;9930;49.240;8.548;2022-08-23T04:01:50;100337.00;;;23.53
19568;BMP280;9930;49.240;8.548;2022-08-23T04:04:18;100329.28;;;23.47
19568;BMP280;9930;49.240;8.548;2022-08-23T04:06:45;100343.13;;;23.49
19568;BMP280;9930;49.240;8.548;2022-08-23T04:09:14;100349.16;;;23.53
19568;BMP280;9930;49.240;8.548;2022-08-23T04:11:45;100356.97;;;23.51
19568;BMP280;9930;49.240;8.548;2022-08-23T04:14:15;100350.16;;;23.44
19568;BMP280;9930;49.240;8.548;2022-08-23T04:16:45;100358.78;;;23.48
19568;BMP280;9930;49.240;8.548;2022-08-23T04:19:22;100354.47;;;23.45
19568;BMP280;9930;49.240;8.548;2022-08-23T04:21:51;100356.25;;;23.43
19568;BMP280;9930;49.240;8.548;2022-08-23T04:24:18;100361.50;;;23.40
19568;BMP280;9930;49.240;8.548;2022-08-23T04:26:45;100365.00;;;23.39
19568;BMP280;9930;49.240;8.548;2022-08-23T04:29:17;100363.25;;;23.38
19568;BMP280;9930;49.240;8.548;2022-08-23T04:31:45;100355.59;;;23.29
19568;BMP280;9930;49.240;8.548;2022-08-23T04:34:14;100372.06;;;23.31
19568;BMP280;9930;49.240;8.548;2022-08-23T04:36:44;100367.00;;;23.22
19568;BMP280;9930;49.240;8.548;2022-08-23T04:39:15;100373.03;;;23.24
19568;BMP280;9930;49.240;8.548;2022-08-23T04:41:47;100380.00;;;23.22
19568;BMP280;9930;49.240;8.548;2022-08-23T04:44:31;100386.94;;;23.21
19568;BMP280;9930;49.240;8.548;2022-08-23T04:46:57;100372.31;;;23.14
19568;BMP280;9930;49.240;8.548;2022-08-23T04:49:25;100377.47;;;23.16
19568;BMP280;9930;49.240;8.548;2022-08-23T04:51:51;100389.53;;;23.23
19568;BMP280;9930;49.240;8.548;2022-08-23T04:54:17;100388.66;;;23.24
19568;BMP280;9930;49.240;8.548;2022-08-23T04:56:44;100386.03;;;23.25
19568;BMP280;9930;49.240;8.548;2022-08-23T04:59:14;100386.91;;;23.23
19568;BMP280;9930;49.240;8.548;2022-08-23T05:01:44;100404.16;;;23.32
19568;BMP280;9930;49.240;8.548;2022-08-23T05:04:14;100411.94;;;23.33
19568;BMP280;9930;49.240;8.548;2022-08-23T05:06:48;100410.13;;;23.37
19568;BMP280;9930;49.240;8.548;2022-08-23T05:09:14;100416.19;;;23.39
19568;BMP280;9930;49.240;8.548;2022-08-23T05:11:43;100418.75;;;23.40
19568;BMP280;9930;49.240;8.548;2022-08-23T05:14:13;100409.22;;;23.41
19568;BMP280;9930;49.240;8.548;2022-08-23T05:16:39;100423.03;;;23.44
19568;BMP280;9930;49.240;8.548;2022-08-23T05:19:04;100421.31;;;23.43
19568;BMP280;9930;49.240;8.548;2022-08-23T05:21:33;100424.75;;;23.47
19568;BMP280;9930;49.240;8.548;2022-08-23T05:23:59;100423.00;;;23.47
19568;BMP280;9930;49.240;8.548;2022-08-23T05:26:25;100433.34;;;23.55
19568;BMP280;9930;49.240;8.548;2022-08-23T05:28:51;100427.25;;;23.53
19568;BMP280;9930;49.240;8.548;2022-08-23T05:31:24;100429.84;;;23.56
19568;BMP280;9930;49.240;8.548;2022-08-23T05:33:50;100440.13;;;23.64
19568;BMP280;9930;49.240;8.548;2022-08-23T05:36:18;100430.66;;;23.60
19568;BMP280;9930;49.240;8.548;2022-08-23T05:38:48;100430.59;;;23.63
19568;BMP280;9930;49.240;8.548;2022-08-23T05:41:20;100450.41;;;23.73
19568;BMP280;9930;49.240;8.548;2022-08-23T05:43:48;100448.63;;;23.76
19568;BMP280;9930;49.240;8.548;2022-08-23T05:46:21;100444.28;;;23.77
19568;BMP280;9930;49.240;8.548;2022-08-23T05:48:50;100458.03;;;23.85
19568;BMP280;9930;49.240;8.548;2022-08-23T05:51:27;100435.50;;;23.82
19568;BMP280;9930;49.240;8.548;2022-08-23T05:53:56;100451.84;;;23.92
19568;BMP280;9930;49.240;8.548;2022-08-23T05:56:27;100454.38;;;23.97
19568;BMP280;9930;49.240;8.548;2022-08-23T05:58:57;100456.03;;;24.01
19568;BMP280;9930;49.240;8.548;2022-08-23T06:01:27;100457.72;;;24.03
19568;BMP280;9930;49.240;8.548;2022-08-23T06:03:58;100462.00;;;24.07
19568;BMP280;9930;49.240;8.548;2022-08-23T06:06:26;100461.16;;;24.07
19568;BMP280;9930;49.240;8.548;2022-08-23T06:08:53;100464.47;;;24.15
19568;BMP280;9930;49.240;8.548;2022-08-23T06:11:23;100460.91;;;24.20
19568;BMP280;9930;49.240;8.548;2022-08-23T06:13:55;100468.28;;;24.46
19568;BMP280;9930;49.240;8.548;2022-08-23T06:16:31;100475.59;;;24.74
19568;BMP280;9930;49.240;8.548;2022-08-23T06:18:59;100455.16;;;24.96
19568;BMP280;9930;49.240;8.548;2022-08-23T06:21:30;100467.38;;;25.35
19568;BMP280;9930;49.240;8.548;2022-08-23T06:23:56;100465.00;;;25.65
19568;BMP280;9930;49.240;8.548;2022-08-23T06:26:39;100469.25;;;26.03
19568;BMP280;9930;49.240;8.548;2022-08-23T06:29:19;100462.41;;;26.31
19568;BMP280;9930;49.240;8.548;2022-08-23T06:31:51;100477.16;;;26.68
19568;BMP280;9930;49.240;8.548;2022-08-23T06:34:27;100479.97;;;26.91
19568;BMP280;9930;49.240;8.548;2022-08-23T06:37:01;100478.00;;;27.01
19568;BMP280;9930;49.240;8.548;2022-08-23T06:39:30;100480.31;;;27.12
19568;BMP280;9930;49.240;8.548;2022-08-23T06:42:04;100487.84;;;27.22
19568;BMP280;9930;49.240;8.548;2022-08-23T06:44:30;100485.22;;;27.22
19568;BMP280;9930;49.240;8.548;2022-08-23T06:46:58;100478.94;;;27.28
19568;BMP280;9930;49.240;8.548;2022-08-23T06:49:24;100482.09;;;27.39
19568;BMP280;9930;49.240;8.548;2022-08-23T06:51:54;100470.66;;;27.41
19568;BMP280;9930;49.240;8.548;2022-08-23T06:54:24;100488.56;;;27.55
19568;BMP280;9930;49.240;8.548;2022-08-23T06:56:53;100477.94;;;27.61
19568;BMP280;9930;49.240;8.548;2022-08-23T06:59:22;100463.97;;;27.61
19568;BMP280;9930;49.240;8.548;2022-08-23T07:01:57;100475.69;;;27.77
19568;BMP280;9930;49.240;8.548;2022-08-23T07:04:28;100482.44;;;27.84
19568;BMP280;9930;49.240;8.548;2022-08-23T07:06:55;100477.19;;;27.84
19568;BMP280;9930;49.240;8.548;2022-08-23T07:09:24;100484.81;;;27.92
19568;BMP280;9930;49.240;8.548;2022-08-23T07:11:53;100481.22;;;27.94
19568;BMP280;9930;49.240;8.548;2022-08-23T07:14:22;100486.31;;;27.99
19568;BMP280;9930;49.240;8.548;2022-08-23T07:16:59;100481.84;;;28.02
19568;BMP280;9930;49.240;8.548;2022-08-23T07:19:32;100485.22;;;28.06
19568;BMP280;9930;49.240;8.548;2022-08-23T07:22:00;100486.81;;;28.10
19568;BMP280;9930;49.240;8.548;2022-08-23T07:24:30;100490.19;;;28.14
19568;BMP280;9930;49.240;8.548;2022-08-23T07:26:57;100489.09;;;28.21
19568;BMP280;9930;49.240;8.548;2022-08-23T07:29:37;100491.38;;;28.31
19568;BMP280;9930;49.240;8.548;2022-08-23T07:32:07;100479.75;;;28.38
19568;BMP280;9930;49.240;8.548;2022-08-23T07:34:33;100493.16;;;28.56
19568;BMP280;9930;49.240;8.548;2022-08-23T07:37:01;100480.66;;;28.62
19568;BMP280;9930;49.240;8.548;2022-08-23T07:39:27;100481.94;;;28.76
19568;BMP280;9930;49.240;8.548;2022-08-23T07:42:00;100495.34;;;28.93
19568;BMP280;9930;49.240;8.548;2022-08-23T07:44:28;100479.47;;;28.96
19568;BMP280;9930;49.240;8.548;2022-08-23T07:46:55;100488.59;;;29.09
19568;BMP280;9930;49.240;8.548;2022-08-23T07:49:23;100489.09;;;29.19
19568;BMP280;9930;49.240;8.548;2022-08-23T07:51:52;100492.34;;;29.25
19568;BMP280;9930;49.240;8.548;2022-08-23T07:54:19;100487.03;;;29.27
19568;BMP280;9930;49.240;8.548;2022-08-23T07:56:52;100495.31;;;29.40
19568;BMP280;9930;49.240;8.548;2022-08-23T07:59:18;100492.84;;;29.35
19568;BMP280;9930;49.240;8.548;2022-08-23T08:01:45;100497.13;;;29.38
19568;BMP280;9930;49.240;8.548;2022-08-23T08:04:14;100505.50;;;29.49
19568;BMP280;9930;49.240;8.548;2022-08-23T08:06:47;100498.28;;;29.54
19568;BMP280;9930;49.240;8.548;2022-08-23T08:09:18;100493.94;;;29.53
19568;BMP280;9930;49.240;8.548;2022-08-23T08:11:46;100494.63;;;29.58
19568;BMP280;9930;49.240;8.548;2022-08-23T08:14:15;100506.59;;;29.65
19568;BMP280;9930;49.240;8.548;2022-08-23T08:16:47;100502.25;;;29.64
19568;BMP280;9930;49.240;8.548;2022-08-23T08:19:17;100500.56;;;29.63
19568;BMP280;9930;49.240;8.548;2022-08-23T08:21:45;100502.31;;;29.62
19568;BMP280;9930;49.240;8.548;2022-08-23T08:24:17;100506.47;;;29.68
19568;BMP280;9930;49.240;8.548;2022-08-23T08:26:45;100509.84;;;29.72
19568;BMP280;9930;49.240;8.548;2022-08-23T08:29:14;100503.72;;;29.71
19568;BMP280;9930;49.240;8.548;2022-08-23T08:31:45;100507.75;;;29.80
19568;BMP280;9930;49.240;8.548;2022-08-23T08:34:14;100489.47;;;29.77
19568;BMP280;9930;49.240;8.548;2022-08-23T08:36:51;100515.09;;;29.93
19568;BMP280;9930;49.240;8.548;2022-08-23T08:39:38;100515.88;;;29.95
19568;BMP280;9930;49.240;8.548;2022-08-23T08:45:21;100509.56;;;30.01
19568;BMP280;9930;49.240;8.548;2022-08-23T08:48:00;100505.81;;;30.07
19568;BMP280;9930;49.240;8.548;2022-08-23T08:50:50;100516.94;;;30.13
19568;BMP280;9930;49.240;8.548;2022-08-23T08:53:37;100515.63;;;30.23
19568;BMP280;9930;49.240;8.548;2022-08-23T08:56:21;100502.41;;;30.25
19568;BMP280;9930;49.240;8.548;2022-08-23T08:58:54;100522.94;;;30.37
19568;BMP280;9930;49.240;8.548;2022-08-23T09:01:24;100517.41;;;30.43
19568;BMP280;9930;49.240;8.548;2022-08-23T09:03:52;100513.66;;;30.49
19568;BMP280;9930;49.240;8.548;2022-08-23T09:12:21;100509.84;;;30.76
19568;BMP280;9930;49.240;8.548;2022-08-23T09:17:54;100506.75;;;30.87
19568;BMP280;9930;49.240;8.548;2022-08-23T09:20:24;100512.59;;;30.93
19568;BMP280;9930;49.240;8.548;2022-08-23T09:23:06;100511.19;;;31.05
19568;BMP280;9930;49.240;8.548;2022-08-23T09:25:35;100512.59;;;31.12
19568;BMP280;9930;49.240;8.548;2022-08-23T09:28:03;100512.19;;;31.21
19568;BMP280;9930;49.240;8.548;2022-08-23T09:30:54;100510.97;;;31.29
19568;BMP280;9930;49.240;8.548;2022-08-23T09:33:38;100502.06;;;31.31
19568;BMP280;9930;49.240;8.548;2022-08-23T09:36:31;100510.25;;;31.44
19568;BMP280;9930;49.240;8.548;2022-08-23T09:39:22;100496.94;;;31.47
19568;BMP280;9930;49.240;8.548;2022-08-23T09:41:49;100502.41;;;31.61
19568;BMP280;9930;49.240;8.548;2022-08-23T09:44:40;100508.03;;;31.72
19568;BMP280;9930;49.240;8.548;2022-08-23T09:47:14;100505.72;;;31.83
19568;BMP280;9930;49.240;8.548;2022-08-23T09:49:45;100509.00;;;31.88
19568;BMP280;9930;49.240;8.548;2022-08-23T09:52:34;100493.16;;;31.88
19568;BMP280;9930;49.240;8.548;2022-08-23T09:55:08;100492.72;;;31.98
19568;BMP280;9930;49.240;8.548;2022-08-23T09:57:36;100491.47;;;32.05
19568;BMP280;9930;49.240;8.548;2022-08-23T10:00:21;100499.56;;;32.19
19568;BMP280;9930;49.240;8.548;2022-08-23T10:02:47;100485.41;;;32.20
19568;BMP280;9930;49.240;8.548;2022-08-23T10:05:40;100479.72;;;32.29
19568;BMP280;9930;49.240;8.548;2022-08-23T10:08:23;100487.16;;;32.38
19568;BMP280;9930;49.240;8.548;2022-08-23T10:10:54;100473.19;;;32.36
19568;BMP280;9930;49.240;8.548;2022-08-23T10:13:21;100476.34;;;32.43
19568;BMP280;9930;49.240;8.548;2022-08-23T10:16:10;100478.34;;;32.55
19568;BMP280;9930;49.240;8.548;2022-08-23T10:31:01;100465.34;;;32.85
19568;BMP280;9930;49.240;8.548;2022-08-23T10:39:31;100450.00;;;33.07
19568;BMP280;9930;49.240;8.548;2022-08-23T10:42:18;100448.66;;;33.16
19568;BMP280;9930;49.240;8.548;2022-08-23T10:45:24;100451.88;;;33.21
19568;BMP280;9930;49.240;8.548;2022-08-23T10:50:48;100449.69;;;33.45
19568;BMP280;9930;49.240;8.548;2022-08-23T10:53:19;100437.41;;;33.44
19568;BMP280;9930;49.240;8.548;2022-08-23T10:55:58;100448.81;;;33.60
19568;BMP280;9930;49.240;8.548;2022-08-23T11:01:08;100441.78;;;33.75
19568;BMP280;9930;49.240;8.548;2022-08-23T11:03:50;100430.16;;;33.77
19568;BMP280;9930;49.240;8.548;2022-08-23T11:09:30;100435.63;;;33.90
19568;BMP280;9930;49.240;8.548;2022-08-23T11:12:18;100436.13;;;33.97
19568;BMP280;9930;49.240;8.548;2022-08-23T11:26:11;100432.56;;;34.12
19568;BMP280;9930;49.240;8.548;2022-08-23T11:31:47;100427.06;;;34.15
19568;BMP280;9930;49.240;8.548;2022-08-23T11:34:39;100422.72;;;34.14
19568;BMP280;9930;49.240;8.548;2022-08-23T11:45:29;100428.09;;;34.13
19568;BMP280;9930;49.240;8.548;2022-08-23T11:56:55;100413.34;;;33.78
19568;BMP280;9930;49.240;8.548;2022-08-23T12:02:39;100403.50;;;33.66
19568;BMP280;9930;49.240;8.548;2022-08-23T12:05:23;100401.50;;;33.70
19568;BMP280;9930;49.240;8.548;2022-08-23T12:21:49;100402.94;;;33.45
19568;BMP280;9930;49.240;8.548;2022-08-23T12:36:00;100386.75;;;33.66
19568;BMP280;9930;49.240;8.548;2022-08-23T12:39:32;100388.78;;;33.76
19568;BMP280;9930;49.240;8.548;2022-08-23T12:42:35;100380.25;;;33.87
19568;BMP280;9930;49.240;8.548;2022-08-23T12:45:17;100382.34;;;33.96
19568;BMP280;9930;49.240;8.548;2022-08-23T12:47:59;100382.34;;;34.10
19568;BMP280;9930;49.240;8.548;2022-08-23T12:50:40;100377.63;;;34.16
19568;BMP280;9930;49.240;8.548;2022-08-23T12:53:27;100369.31;;;34.22
19568;BMP280;9930;49.240;8.548;2022-08-23T12:56:18;100385.84;;;34.25
19568;BMP280;9930;49.240;8.548;2022-08-23T12:58:57;100382.16;;;34.28
19568;BMP280;9930;49.240;8.548;2022-08-23T13:01:33;100388.31;;;34.28
19568;BMP280;9930;49.240;8.548;2022-08-23T13:04:25;100374.94;;;34.31
19568;BMP280;9930;49.240;8.548;2022-08-23T13:06:58;100373.78;;;34.35
19568;BMP280;9930;49.240;8.548;2022-08-23T13:09:33;100379.66;;;34.40
19568;BMP280;9930;49.240;8.548;2022-08-23T13:12:04;100371.50;;;34.43
19568;BMP280;9930;49.240;8.548;2022-08-23T13:22:37;100354.47;;;34.62
19568;BMP280;9930;49.240;8.548;2022-08-23T13:28:07;100366.00;;;34.61
19568;BMP280;9930;49.240;8.548;2022-08-23T13:31:05;100358.81;;;34.63
19568;BMP280;9930;49.240;8.548;2022-08-23T13:33:33;100357.13;;;34.62
19568;BMP280;9930;49.240;8.548;2022-08-23T13:36:19;100367.22;;;34.69
19568;BMP280;9930;49.240;8.548;2022-08-23T13:38:48;100351.72;;;34.63
19568;BMP280;9930;49.240;8.548;2022-08-23T13:41:31;100360.88;;;34.72
19568;BMP280;9930;49.240;8.548;2022-08-23T13:44:04;100362.50;;;34.74
19568;BMP280;9930;49.240;8.548;2022-08-23T13:46:32;100361.44;;;34.77
19568;BMP280;9930;49.240;8.548;2022-08-23T13:49:19;100355.94;;;34.80
19568;BMP280;9930;49.240;8.548;2022-08-23T13:54:24;100342.78;;;34.79
19568;BMP280;9930;49.240;8.548;2022-08-23T13:56:58;100337.22;;;34.83
19568;BMP280;9930;49.240;8.548;2022-08-23T13:59:34;100340.63;;;34.85
19568;BMP280;9930;49.240;8.548;2022-08-23T14:02:08;100337.03;;;34.86
19568;BMP280;9930;49.240;8.548;2022-08-23T14:04:37;100346.47;;;34.90
19568;BMP280;9930;49.240;8.548;2022-08-23T14:07:15;100339.69;;;34.86
19568;BMP280;9930;49.240;8.548;2022-08-23T14:09:48;100346.47;;;34.90
19568;BMP280;9930;49.240;8.548;2022-08-23T14:12:26;100340.34;;;34.90
19568;BMP280;9930;49.240;8.548;2022-08-23T14:14:52;100342.13;;;34.89
19568;BMP280;9930;49.240;8.548;2022-08-23T14:17:20;100331.72;;;34.86
19568;BMP280;9930;49.240;8.548;2022-08-23T14:19:48;100333.22;;;34.90
19568;BMP280;9930;49.240;8.548;2022-08-23T14:22:18;100339.47;;;34.89
19568;BMP280;9930;49.240;8.548;2022-08-23T14:24:48;100324.63;;;34.87
19568;BMP280;9930;49.240;8.548;2022-08-23T14:27:18;100329.94;;;34.87
19568;BMP280;9930;49.240;8.548;2022-08-23T14:29:44;100341.19;;;34.90
19568;BMP280;9930;49.240;8.548;2022-08-23T14:32:10;100325.47;;;34.87
19568;BMP280;9930;49.240;8.548;2022-08-23T14:34:36;100336.09;;;34.87
19568;BMP280;9930;49.240;8.548;2022-08-23T14:37:04;100341.94;;;34.78
19568;BMP280;9930;49.240;8.548;2022-08-23T14:39:30;100341.09;;;34.78
19568;BMP280;9930;49.240;8.548;2022-08-23T14:41:58;100339.41;;;34.77
19568;BMP280;9930;49.240;8.548;2022-08-23T14:44:29;100344.78;;;34.75
19568;BMP280;9930;49.240;8.548;2022-08-23T14:46:54;100338.09;;;34.69
19568;BMP280;9930;49.240;8.548;2022-08-23T14:49:22;100343.84;;;34.76
19568;BMP280;9930;49.240;8.548;2022-08-23T14:51:49;100329.09;;;34.72
19568;BMP280;9930;49.240;8.548;2022-08-23T14:54:21;100328.03;;;34.74
19568;BMP280;9930;49.240;8.548;2022-08-23T14:56:50;100333.03;;;34.79
19568;BMP280;9930;49.240;8.548;2022-08-23T14:59:20;100331.25;;;34.80
19568;BMP280;9930;49.240;8.548;2022-08-23T15:01:49;100325.88;;;34.81
19568;BMP280;9930;49.240;8.548;2022-08-23T15:04:20;100323.22;;;34.81
19568;BMP280;9930;49.240;8.548;2022-08-23T15:06:51;100332.78;;;34.84
19568;BMP280;9930;49.240;8.548;2022-08-23T15:09:20;100329.19;;;34.85
19568;BMP280;9930;49.240;8.548;2022-08-23T15:11:45;100327.47;;;34.84
19568;BMP280;9930;49.240;8.548;2022-08-23T15:14:17;100333.63;;;34.84
19568;BMP280;9930;49.240;8.548;2022-08-23T15:16:50;100315.44;;;34.78
19568;BMP280;9930;49.240;8.548;2022-08-23T15:19:20;100327.84;;;34.78
19568;BMP280;9930;49.240;8.548;2022-08-23T15:21:46;100320.84;;;34.77
19568;BMP280;9930;49.240;8.548;2022-08-23T15:24:15;100328.53;;;34.81
19568;BMP280;9930;49.240;8.548;2022-08-23T15:26:45;100313.75;;;34.77
19568;BMP280;9930;49.240;8.548;2022-08-23T15:29:21;100325.94;;;34.80
19568;BMP280;9930;49.240;8.548;2022-08-23T15:31:46;100325.09;;;34.79
19568;BMP280;9930;49.240;8.548;2022-08-23T15:34:17;100308.94;;;34.69
19568;BMP280;9930;49.240;8.548;2022-08-23T15:36:44;100311.38;;;34.72
19568;BMP280;9930;49.240;8.548;2022-08-23T15:39:15;100309.38;;;34.76
19568;BMP280;9930;49.240;8.548;2022-08-23T15:41:48;100321.50;;;34.80
19568;BMP280;9930;49.240;8.548;2022-08-23T15:44:17;100312.03;;;34.76
19568;BMP280;9930;49.240;8.548;2022-08-23T15:46:47;100317.94;;;34.81
19568;BMP280;9930;49.240;8.548;2022-08-23T15:49:32;100308.34;;;34.79
19568;BMP280;9930;49.240;8.548;2022-08-23T15:51:57;100317.16;;;34.79
19568;BMP280;9930;49.240;8.548;2022-08-23T15:54:23;100318.19;;;34.77
19568;BMP280;9930;49.240;8.548;2022-08-23T15:56:49;100314.78;;;34.74
19568;BMP280;9930;49.240;8.548;2022-08-23T15:59:18;100306.19;;;34.71
19568;BMP280;9930;49.240;8.548;2022-08-23T16:01:47;100320.09;;;34.74
19568;BMP280;9930;49.240;8.548;2022-08-23T16:04:19;100306.59;;;34.65
19568;BMP280;9930;49.240;8.548;2022-08-23T16:06:47;100309.34;;;34.63
19568;BMP280;9930;49.240;8.548;2022-08-23T16:09:21;100316.53;;;34.61
19568;BMP280;9930;49.240;8.548;2022-08-23T16:11:48;100310.38;;;34.61
19568;BMP280;9930;49.240;8.548;2022-08-23T16:14:16;100304.44;;;34.57
19568;BMP280;9930;49.240;8.548;2022-08-23T16:16:48;100317.47;;;34.60
19568;BMP280;9930;49.240;8.548;2022-08-23T16:19:17;100305.28;;;34.58
19568;BMP280;9930;49.240;8.548;2022-08-23T16:21:45;100307.19;;;34.56
19568;BMP280;9930;49.240;8.548;2022-08-23T16:24:15;100309.06;;;34.54
19568;BMP280;9930;49.240;8.548;2022-08-23T16:26:49;100305.84;;;34.49
19568;BMP280;9930;49.240;8.548;2022-08-23T16:29:19;100305.84;;;34.49
19568;BMP280;9930;49.240;8.548;2022-08-23T16:31:48;100307.84;;;34.45